Time;durP1;ratioP1;P1;durP2;ratioP2;P2;SDS_P1;SDS_P2;PMS_P1;PMS_P2;Temp;Humidity;BMP_temperature;BMP_pressure;BME280_temperature;BME280_humidity;BME280_pressure;Samples;Min_cycle;Max_cycle;Signal;HPM_P1;HPM_P2
2021/03/31 00:02:12;;;;;;;5.00;3.80;;;7.30;99.90;;;;;;4977186;28;20179;-77
2021/03/31 00:04:38;;;;;;;5.03;3.60;;;7.30;99.90;;;;;;4976062;28;20186;-78
2021/03/31 00:07:08;;;;;;;5.50;3.13;;;7.30;99.90;;;;;;4976112;28;20208;-77
2021/03/31 00:09:34;;;;;;;9.63;4.23;;;7.30;99.90;;;;;;4977324;28;20521;-77
2021/03/31 00:12:00;;;;;;;5.23;3.73;;;7.20;99.90;;;;;;4977146;28;20246;-78
2021/03/31 00:14:25;;;;;;;12.33;4.60;;;7.20;99.90;;;;;;4976770;28;20204;-77
2021/03/31 00:16:51;;;;;;;5.17;3.37;;;7.10;99.90;;;;;;4977652;28;20199;-77
2021/03/31 00:19:17;;;;;;;6.20;3.60;;;7.10;99.90;;;;;;4977454;28;20697;-77
2021/03/31 00:21:42;;;;;;;7.53;3.67;;;7.10;99.90;;;;;;4976497;28;20183;-77
2021/03/31 00:24:08;;;;;;;7.63;4.60;;;7.00;99.90;;;;;;4977996;28;20183;-78
2021/03/31 00:26:34;;;;;;;10.27;3.50;;;7.00;99.90;;;;;;4977652;28;20288;-78
2021/03/31 00:29:00;;;;;;;8.13;3.87;;;7.00;99.90;;;;;;4976932;28;20228;-77
2021/03/31 00:31:26;;;;;;;10.43;3.57;;;7.00;99.90;;;;;;4976595;28;20195;-77
2021/03/31 00:33:52;;;;;;;4.80;3.10;;;6.90;99.90;;;;;;4976690;28;20210;-78
2021/03/31 00:36:17;;;;;;;6.07;3.07;;;6.90;99.90;;;;;;4977838;28;20204;-78
2021/03/31 00:38:43;;;;;;;7.57;3.70;;;6.80;99.90;;;;;;4977851;28;20186;-77
2021/03/31 00:41:09;;;;;;;8.47;3.37;;;6.80;99.90;;;;;;4978310;28;20180;-78
2021/03/31 00:43:34;;;;;;;5.83;3.53;;;6.80;99.90;;;;;;4980130;28;20231;-78
2021/03/31 00:46:00;;;;;;;4.50;3.17;;;6.80;99.90;;;;;;4979269;28;20212;-77
2021/03/31 00:48:26;;;;;;;5.93;3.40;;;6.80;99.90;;;;;;4978404;28;20249;-78
2021/03/31 00:50:58;;;;;;;6.50;3.47;;;6.80;99.90;;;;;;4979461;28;20639;-77
2021/03/31 00:53:27;;;;;;;8.07;3.30;;;6.90;99.90;;;;;;4978857;28;20267;-77
2021/03/31 00:55:54;;;;;;;8.43;3.37;;;6.90;99.90;;;;;;4979368;28;20194;-77
2021/03/31 00:58:20;;;;;;;6.73;3.70;;;6.90;99.90;;;;;;4978492;28;20193;-77
2021/03/31 01:00:46;;;;;;;4.10;3.17;;;6.90;99.90;;;;;;4979810;28;20539;-77
2021/03/31 01:03:12;;;;;;;5.50;3.10;;;6.90;99.90;;;;;;4979892;28;20547;-77
2021/03/31 01:05:38;;;;;;;6.70;3.70;;;6.90;99.90;;;;;;4982655;28;20196;-77
2021/03/31 01:08:03;;;;;;;4.50;3.23;;;6.90;99.90;;;;;;4994547;28;20191;-78
2021/03/31 01:10:35;;;;;;;6.87;3.00;;;6.90;99.90;;;;;;4982888;28;20187;-78
2021/03/31 01:13:17;;;;;;;4.70;3.23;;;6.90;99.90;;;;;;4984473;28;20170;-78
2021/03/31 01:16:05;;;;;;;7.37;3.00;;;6.90;99.90;;;;;;4983353;28;20275;-78
2021/03/31 01:18:33;;;;;;;4.33;3.13;;;6.90;99.90;;;;;;4982035;28;20175;-77
2021/03/31 01:21:24;;;;;;;11.57;2.97;;;6.80;99.90;;;;;;4982081;28;20208;-77
2021/03/31 01:24:15;;;;;;;6.83;2.97;;;6.80;99.90;;;;;;4984496;28;20174;-78
2021/03/31 01:27:04;;;;;;;4.23;2.97;;;6.70;99.90;;;;;;4985434;28;20197;-78
2021/03/31 01:29:41;;;;;;;6.80;2.97;;;6.70;99.90;;;;;;4984559;28;20256;-78
2021/03/31 01:32:54;;;;;;;7.53;3.57;;;6.70;99.90;;;;;;4985273;28;20168;-78
2021/03/31 01:35:21;;;;;;;5.67;4.03;;;6.70;99.90;;;;;;4957264;28;20198;-78
2021/03/31 01:38:01;;;;;;;5.67;2.63;;;6.60;99.90;;;;;;4983252;28;20177;-78
2021/03/31 01:40:29;;;;;;;3.23;2.30;;;6.50;99.90;;;;;;4984361;28;20160;-78
2021/03/31 01:42:59;;;;;;;5.30;3.00;;;6.50;99.90;;;;;;4984323;28;20174;-78
2021/03/31 01:45:30;;;;;;;5.80;3.03;;;6.40;99.90;;;;;;4984176;28;20198;-78
2021/03/31 01:47:59;;;;;;;5.00;3.27;;;6.40;99.90;;;;;;4984721;28;20193;-78
2021/03/31 01:50:28;;;;;;;5.27;2.73;;;6.30;99.90;;;;;;4983824;28;20202;-78
2021/03/31 01:52:54;;;;;;;9.30;2.83;;;6.30;99.90;;;;;;4984308;28;20174;-78
2021/03/31 01:55:21;;;;;;;8.17;3.30;;;6.20;99.90;;;;;;4983930;28;20178;-78
2021/03/31 01:57:49;;;;;;;5.67;3.40;;;6.20;99.90;;;;;;4983484;28;20186;-78
2021/03/31 02:00:17;;;;;;;9.80;3.80;;;6.20;99.90;;;;;;4984212;28;20209;-78
2021/03/31 02:02:48;;;;;;;4.80;3.37;;;6.10;99.90;;;;;;4983652;28;20234;-78
2021/03/31 02:05:14;;;;;;;5.17;3.30;;;6.10;99.90;;;;;;4983772;28;20637;-78
2021/03/31 02:07:40;;;;;;;5.67;3.27;;;6.00;99.90;;;;;;4983845;28;20289;-78
2021/03/31 02:10:11;;;;;;;7.40;3.40;;;6.00;99.90;;;;;;4983040;28;20172;-78
2021/03/31 02:12:39;;;;;;;5.00;2.77;;;5.90;99.90;;;;;;4983369;28;20183;-78
2021/03/31 02:15:06;;;;;;;4.43;2.50;;;5.90;99.90;;;;;;4982690;28;20193;-78
2021/03/31 02:17:34;;;;;;;9.27;2.97;;;5.90;99.90;;;;;;4983068;28;20174;-78
2021/03/31 02:20:03;;;;;;;7.57;2.63;;;5.90;99.90;;;;;;4981283;28;20198;-77
2021/03/31 02:22:30;;;;;;;5.10;3.03;;;5.80;99.90;;;;;;4982007;28;20186;-78
2021/03/31 02:24:58;;;;;;;6.37;2.63;;;5.80;99.90;;;;;;4981735;28;20178;-78
2021/03/31 02:27:23;;;;;;;6.67;2.90;;;5.80;99.90;;;;;;4979870;28;20203;-78
2021/03/31 02:29:50;;;;;;;7.77;2.97;;;5.80;99.90;;;;;;4981493;28;20270;-78
2021/03/31 02:32:20;;;;;;;5.60;2.20;;;5.70;99.90;;;;;;4982548;28;20262;-78
2021/03/31 02:34:47;;;;;;;6.57;2.77;;;5.80;99.90;;;;;;4980985;28;20201;-77
2021/03/31 02:37:14;;;;;;;5.57;2.37;;;5.80;99.90;;;;;;4981259;28;20196;-77
2021/03/31 02:39:42;;;;;;;5.83;3.80;;;5.80;99.90;;;;;;4982035;28;20579;-78
2021/03/31 02:42:10;;;;;;;4.73;2.33;;;5.80;99.90;;;;;;4981824;28;20171;-78
2021/03/31 02:44:42;;;;;;;2.77;2.07;;;5.70;99.90;;;;;;4981716;28;20656;-78
2021/03/31 02:47:11;;;;;;;4.43;2.70;;;5.70;99.90;;;;;;4979829;28;20206;-78
2021/03/31 02:49:39;;;;;;;4.90;2.67;;;5.70;99.90;;;;;;4981676;28;20258;-78
2021/03/31 02:52:07;;;;;;;4.97;2.67;;;5.70;99.90;;;;;;4981302;28;20643;-78
2021/03/31 02:54:33;;;;;;;7.60;2.33;;;5.70;99.90;;;;;;4980922;28;20193;-78
2021/03/31 02:56:58;;;;;;;5.80;2.50;;;5.70;99.90;;;;;;4980858;28;20218;-78
2021/03/31 02:59:25;;;;;;;7.83;2.53;;;5.70;99.90;;;;;;4980012;28;20177;-78
2021/03/31 03:01:53;;;;;;;3.77;2.33;;;5.70;99.90;;;;;;4979509;28;20177;-77
2021/03/31 03:04:20;;;;;;;4.17;2.27;;;5.70;99.90;;;;;;4979528;28;20174;-78
2021/03/31 03:06:46;;;;;;;3.93;2.33;;;5.60;99.90;;;;;;4979498;28;20197;-78
2021/03/31 03:09:12;;;;;;;5.57;2.47;;;5.60;99.90;;;;;;4979719;28;20265;-78
2021/03/31 03:11:40;;;;;;;7.07;2.40;;;5.50;99.90;;;;;;4978820;28;20218;-77
2021/03/31 03:14:08;;;;;;;7.40;2.80;;;5.50;99.90;;;;;;4979964;28;20205;-77
2021/03/31 03:16:34;;;;;;;5.93;2.53;;;5.50;99.90;;;;;;4978283;28;20256;-77
2021/03/31 03:18:59;;;;;;;8.80;2.50;;;5.40;99.90;;;;;;4976440;28;20653;-77
2021/03/31 03:21:27;;;;;;;3.70;2.00;;;5.30;99.90;;;;;;4978156;28;20229;-78
2021/03/31 03:23:55;;;;;;;4.07;2.30;;;5.30;99.90;;;;;;4977482;28;20247;-77
2021/03/31 03:26:22;;;;;;;9.07;2.37;;;5.20;99.90;;;;;;4978823;28;20193;-78
2021/03/31 03:28:49;;;;;;;4.73;2.30;;;5.10;99.90;;;;;;4977217;28;20559;-78
2021/03/31 03:31:15;;;;;;;3.03;1.87;;;5.10;99.90;;;;;;4977605;28;20731;-78
2021/03/31 03:33:41;;;;;;;2.80;1.87;;;4.90;99.90;;;;;;4976736;28;20569;-78
2021/03/31 03:36:09;;;;;;;5.23;2.47;;;4.80;99.90;;;;;;4976861;28;20201;-77
2021/03/31 03:38:36;;;;;;;4.13;2.20;;;4.70;99.90;;;;;;4977351;28;20567;-78
2021/03/31 03:41:06;;;;;;;6.47;2.77;;;4.70;99.90;;;;;;4979099;28;20182;-77
2021/03/31 03:43:32;;;;;;;4.17;2.30;;;4.60;99.90;;;;;;4978994;28;20167;-77
2021/03/31 03:45:59;;;;;;;4.20;2.70;;;4.50;99.90;;;;;;4978830;28;20199;-77
2021/03/31 03:48:25;;;;;;;3.63;2.17;;;4.50;99.90;;;;;;4977322;28;20182;-78
2021/03/31 03:50:52;;;;;;;7.83;2.97;;;4.50;99.90;;;;;;4981841;28;20607;-77
2021/03/31 03:53:19;;;;;;;4.13;2.40;;;4.50;99.90;;;;;;4978240;28;20294;-78
2021/03/31 03:55:45;;;;;;;3.97;2.50;;;4.50;99.90;;;;;;4977090;28;20274;-77
2021/03/31 03:58:12;;;;;;;7.17;2.43;;;4.40;99.90;;;;;;4979070;28;20660;-78
2021/03/31 04:00:38;;;;;;;8.40;2.13;;;4.50;99.90;;;;;;4978138;28;20175;-78
2021/03/31 04:03:04;;;;;;;3.93;2.17;;;4.50;99.90;;;;;;4980349;28;20647;-77
2021/03/31 04:05:30;;;;;;;3.47;2.60;;;4.60;99.90;;;;;;4979267;28;20197;-77
2021/03/31 04:07:56;;;;;;;5.17;2.30;;;4.60;99.90;;;;;;4978582;28;20185;-77
2021/03/31 04:10:29;;;;;;;5.17;2.27;;;4.50;99.90;;;;;;4979368;28;20260;-77
2021/03/31 04:12:58;;;;;;;6.13;2.10;;;4.60;99.90;;;;;;4979721;28;20547;-77
2021/03/31 04:15:25;;;;;;;6.90;2.17;;;4.60;99.90;;;;;;4980750;28;20202;-77
2021/03/31 04:17:52;;;;;;;3.60;2.20;;;4.60;99.90;;;;;;4980719;28;20223;-77
2021/03/31 04:20:23;;;;;;;6.83;2.00;;;4.60;99.90;;;;;;4981778;28;20182;-78
2021/03/31 04:22:50;;;;;;;4.93;2.13;;;4.60;99.90;;;;;;4983117;28;20544;-78
2021/03/31 04:25:17;;;;;;;2.93;1.67;;;4.60;99.90;;;;;;4983075;28;20194;-78
2021/03/31 04:27:45;;;;;;;5.10;2.30;;;4.60;99.90;;;;;;4985040;28;20180;-77
2021/03/31 04:30:13;;;;;;;4.60;2.10;;;4.60;99.90;;;;;;4979282;28;20271;-78
2021/03/31 04:32:41;;;;;;;7.40;2.43;;;4.60;99.90;;;;;;4977280;28;20183;-78
2021/03/31 04:35:08;;;;;;;4.90;2.47;;;4.60;99.90;;;;;;4976595;28;20733;-78
2021/03/31 04:37:34;;;;;;;2.40;1.47;;;4.60;99.90;;;;;;4976946;28;20202;-77
2021/03/31 04:40:00;;;;;;;2.77;2.00;;;4.60;99.90;;;;;;4976768;28;20188;-78
2021/03/31 04:42:25;;;;;;;10.20;2.23;;;4.60;99.90;;;;;;4976965;28;20174;-78
2021/03/31 04:44:51;;;;;;;3.37;2.20;;;4.60;99.90;;;;;;4976502;28;20208;-78
2021/03/31 04:47:17;;;;;;;5.73;2.13;;;4.50;99.90;;;;;;4976334;28;20213;-78
2021/03/31 04:49:42;;;;;;;5.20;1.83;;;4.50;99.90;;;;;;4975704;28;20183;-78
2021/03/31 04:52:08;;;;;;;4.27;2.10;;;4.40;99.90;;;;;;4976791;28;20186;-78
2021/03/31 04:54:33;;;;;;;3.37;2.03;;;4.40;99.90;;;;;;4975624;28;20210;-77
2021/03/31 04:56:59;;;;;;;4.43;2.00;;;4.40;99.90;;;;;;4976211;28;20743;-77
2021/03/31 04:59:25;;;;;;;6.47;2.20;;;4.40;99.90;;;;;;4978516;28;20253;-77
2021/03/31 05:01:50;;;;;;;4.07;2.27;;;4.30;99.90;;;;;;4980021;28;20527;-77
2021/03/31 05:04:16;;;;;;;7.20;2.27;;;4.30;99.90;;;;;;4979019;28;20200;-77
2021/03/31 05:06:42;;;;;;;4.73;2.30;;;4.40;99.90;;;;;;4979365;28;20723;-77
2021/03/31 05:09:08;;;;;;;4.17;1.77;;;4.30;99.90;;;;;;4979503;28;20181;-77
2021/03/31 05:11:33;;;;;;;8.47;2.20;;;4.30;99.90;;;;;;4979687;28;20238;-77
2021/03/31 05:13:59;;;;;;;4.23;2.10;;;4.30;99.90;;;;;;4980158;28;20217;-77
2021/03/31 05:16:25;;;;;;;2.83;1.93;;;4.30;99.90;;;;;;4979815;28;20202;-78
2021/03/31 05:18:50;;;;;;;4.67;2.07;;;4.30;99.90;;;;;;4980381;28;20170;-78
2021/03/31 05:21:16;;;;;;;4.50;1.97;;;4.30;99.90;;;;;;4979170;28;20657;-78
2021/03/31 05:23:42;;;;;;;7.23;2.47;;;4.30;99.90;;;;;;4978758;28;20179;-77
2021/03/31 05:26:07;;;;;;;7.53;2.37;;;4.30;99.90;;;;;;4979723;28;20201;-78
2021/03/31 05:28:33;;;;;;;8.37;2.63;;;4.40;99.90;;;;;;4980484;28;20659;-77
2021/03/31 05:30:58;;;;;;;4.37;2.40;;;4.50;99.90;;;;;;4978647;28;20182;-77
2021/03/31 05:33:24;;;;;;;4.67;2.10;;;4.40;99.90;;;;;;4977181;28;20213;-77
2021/03/31 05:35:50;;;;;;;7.47;2.00;;;4.50;99.90;;;;;;4976704;28;20194;-77
2021/03/31 05:38:15;;;;;;;6.87;2.00;;;4.60;99.90;;;;;;4977148;28;20278;-77
2021/03/31 05:40:41;;;;;;;6.77;1.90;;;4.60;99.90;;;;;;4977028;28;20194;-77
2021/03/31 05:43:07;;;;;;;4.13;1.80;;;4.70;99.90;;;;;;4976908;28;20563;-77
2021/03/31 05:45:34;;;;;;;3.57;1.70;;;4.70;99.90;;;;;;4975436;28;20244;-77
2021/03/31 05:48:00;;;;;;;6.30;1.80;;;4.70;99.90;;;;;;4977433;28;20174;-77
2021/03/31 05:50:26;;;;;;;4.93;1.97;;;4.80;99.90;;;;;;4977261;28;20178;-77
2021/03/31 05:52:52;;;;;;;8.53;2.40;;;5.00;99.90;;;;;;4977313;28;20173;-77
2021/03/31 05:55:18;;;;;;;5.10;2.00;;;;;;;;;;4977210;28;20220;-77
2021/03/31 05:57:45;;;;;;;6.07;1.97;;;5.00;99.90;;;;;;4979099;28;20264;-77
2021/03/31 06:00:19;;;;;;;10.77;2.00;;;5.10;99.90;;;;;;4978889;28;20175;-77
2021/03/31 06:02:46;;;;;;;10.93;2.40;;;5.40;99.90;;;;;;4979197;28;20158;-77
2021/03/31 06:05:13;;;;;;;7.07;2.00;;;5.10;99.90;;;;;;4979244;28;20662;-78
2021/03/31 06:07:43;;;;;;;8.80;2.27;;;5.40;99.90;;;;;;4976731;28;20189;-77
2021/03/31 06:10:08;;;;;;;11.50;3.30;;;5.50;99.90;;;;;;4977265;28;20216;-77
2021/03/31 06:12:36;;;;;;;8.70;3.10;;;;;;;;;;4978410;28;20181;-77
2021/03/31 06:15:21;;;;;;;5.40;2.00;;;5.70;99.90;;;;;;4976433;28;20286;-77
2021/03/31 06:17:52;;;;;;;13.27;5.60;;;5.90;99.90;;;;;;4977369;28;20511;-77
2021/03/31 06:21:04;;;;;;;7.83;3.70;;;5.90;99.90;;;;;;4977720;28;20166;-77
2021/03/31 06:26:26;;;;;;;8.13;4.97;;;6.00;99.90;;;;;;4977526;28;20209;-77
2021/03/31 06:29:07;;;;;;;7.27;2.97;;;6.20;99.90;;;;;;4977455;28;20189;-77
2021/03/31 06:31:36;;;;;;;12.30;5.57;;;6.30;99.90;;;;;;4977601;28;20183;-77
2021/03/31 06:34:07;;;;;;;7.83;3.27;;;6.50;99.90;;;;;;4977597;28;20223;-77
2021/03/31 06:36:45;;;;;;;7.07;2.43;;;6.60;99.90;;;;;;4976362;28;20202;-77
2021/03/31 06:39:23;;;;;;;10.17;3.27;;;6.70;99.90;;;;;;4977674;28;20174;-77
2021/03/31 06:42:03;;;;;;;6.73;3.63;;;6.70;99.90;;;;;;4975964;28;20181;-77
2021/03/31 06:44:52;;;;;;;8.67;3.27;;;7.10;99.90;;;;;;4975511;28;20220;-77
2021/03/31 06:47:35;;;;;;;5.20;3.30;;;7.10;99.90;;;;;;4976923;28;20190;-77
2021/03/31 06:50:08;;;;;;;8.83;5.00;;;7.20;99.90;;;;;;4975764;28;20206;-77
2021/03/31 06:52:33;;;;;;;14.40;6.93;;;7.40;99.90;;;;;;4977496;28;20171;-77
2021/03/31 06:55:03;;;;;;;9.60;3.73;;;7.50;99.90;;;;;;4977009;28;20205;-77
2021/03/31 06:57:31;;;;;;;12.50;3.63;;;7.70;99.90;;;;;;4976328;28;20718;-77
2021/03/31 07:00:02;;;;;;;4.00;2.60;;;7.90;99.90;;;;;;4976092;28;20209;-77
2021/03/31 07:02:30;;;;;;;8.43;3.30;;;8.10;99.90;;;;;;4977404;28;20170;-77
2021/03/31 07:04:58;;;;;;;11.47;3.30;;;8.30;99.90;;;;;;4977460;28;20179;-77
2021/03/31 07:07:38;;;;;;;6.40;3.73;;;8.50;99.90;;;;;;4976769;28;20201;-77
2021/03/31 07:10:09;;;;;;;7.33;3.57;;;8.60;99.90;;;;;;4976796;28;20648;-77
2021/03/31 07:12:49;;;;;;;5.50;2.93;;;8.80;99.90;;;;;;4978033;28;20731;-77
2021/03/31 07:15:25;;;;;;;6.37;2.47;;;9.00;99.90;;;;;;4978173;28;20182;-77
2021/03/31 07:17:54;;;;;;;4.20;2.27;;;9.30;99.30;;;;;;4977511;28;20206;-77
2021/03/31 07:20:28;;;;;;;6.87;2.07;;;9.80;98.90;;;;;;4978188;28;20639;-78
2021/03/31 07:22:55;;;;;;;4.53;2.30;;;10.60;97.10;;;;;;4978971;28;20246;-78
2021/03/31 07:25:24;;;;;;;6.10;2.30;;;11.20;95.20;;;;;;4977927;28;20190;-79
2021/03/31 07:27:54;;;;;;;4.30;2.50;;;12.00;94.20;;;;;;4979800;28;20616;-77
2021/03/31 07:30:23;;;;;;;6.13;2.23;;;12.80;91.10;;;;;;4980169;28;20217;-77
2021/03/31 07:33:04;;;;;;;4.97;2.03;;;12.90;87.70;;;;;;4982070;28;20180;-77
2021/03/31 07:35:33;;;;;;;7.07;2.60;;;13.40;85.40;;;;;;4979898;28;20204;-78
2021/03/31 07:38:01;;;;;;;7.27;2.17;;;13.60;81.50;;;;;;4980632;28;20176;-78
2021/03/31 07:40:29;;;;;;;4.27;1.97;;;13.70;79.50;;;;;;4981620;28;20179;-77
2021/03/31 07:43:01;;;;;;;3.67;2.07;;;13.90;77.90;;;;;;4979210;28;20254;-78
2021/03/31 07:45:49;;;;;;;6.77;2.07;;;14.00;74.80;;;;;;4980251;28;20548;-78
2021/03/31 07:48:17;;;;;;;6.93;1.93;;;14.50;73.80;;;;;;4979408;28;20181;-78
2021/03/31 07:50:42;;;;;;;4.53;2.07;;;14.80;72.40;;;;;;4980896;28;20173;-78
2021/03/31 07:53:09;;;;;;;5.07;2.00;;;15.10;70.70;;;;;;4980854;28;20176;-78
2021/03/31 07:55:47;;;;;;;5.77;2.13;;;15.10;68.70;;;;;;4981477;28;20199;-78
2021/03/31 07:58:13;;;;;;;4.30;1.97;;;15.20;68.40;;;;;;4978898;28;20188;-78
2021/03/31 08:03:17;;;;;;;7.97;2.20;;;15.90;66.50;;;;;;4979269;28;20183;-78
2021/03/31 08:06:11;;;;;;;3.97;1.90;;;16.30;65.20;;;;;;4979715;28;20192;-78
2021/03/31 08:08:46;;;;;;;7.07;1.83;;;16.50;63.90;;;;;;4978683;28;20176;-78
2021/03/31 08:11:41;;;;;;;5.17;1.83;;;16.80;62.10;;;;;;4980923;28;20179;-78
2021/03/31 08:14:08;;;;;;;5.47;2.07;;;17.00;60.80;;;;;;4979995;28;20216;-78
2021/03/31 08:16:45;;;;;;;9.03;2.70;;;17.60;60.40;;;;;;4980298;28;20223;-77
2021/03/31 08:19:20;;;;;;;8.50;3.23;;;18.40;58.90;;;;;;4980466;28;20170;-78
2021/03/31 08:21:47;;;;;;;5.73;2.37;;;19.30;57.80;;;;;;4979841;28;20179;-77
2021/03/31 08:24:14;;;;;;;6.97;2.23;;;20.20;56.90;;;;;;4981981;28;20625;-78
2021/03/31 08:26:45;;;;;;;8.17;2.13;;;20.90;55.70;;;;;;4982139;28;20211;-78
2021/03/31 08:29:30;;;;;;;6.67;2.50;;;21.20;52.20;;;;;;4981660;28;20656;-78
2021/03/31 08:32:04;;;;;;;10.37;2.60;;;21.90;50.00;;;;;;4983352;28;20518;-78
2021/03/31 08:34:31;;;;;;;8.40;2.70;;;22.20;48.80;;;;;;4981878;28;20208;-78
2021/03/31 08:36:58;;;;;;;6.90;2.97;;;21.90;47.50;;;;;;4982417;28;20616;-78
2021/03/31 08:39:24;;;;;;;3.80;2.60;;;21.40;48.50;;;;;;4986691;28;20184;-78
2021/03/31 08:41:54;;;;;;;4.53;2.53;;;21.10;47.90;;;;;;4987589;28;20184;-77
2021/03/31 08:44:33;;;;;;;12.63;3.00;;;21.30;50.50;;;;;;4985778;28;20670;-78
2021/03/31 08:47:11;;;;;;;4.47;3.10;;;21.80;48.20;;;;;;4978203;28;20219;-78
2021/03/31 08:49:38;;;;;;;10.90;3.23;;;22.10;49.40;;;;;;4979775;28;20532;-76
2021/03/31 08:52:07;;;;;;;7.77;2.80;;;22.00;47.60;;;;;;4974821;28;20180;-76
2021/03/31 08:54:41;;;;;;;8.37;3.03;;;21.50;49.20;;;;;;4974361;28;20281;-76
2021/03/31 08:57:15;;;;;;;8.43;2.60;;;21.60;49.10;;;;;;4974892;28;20212;-78
2021/03/31 08:59:44;;;;;;;7.37;3.10;;;21.30;48.90;;;;;;4977484;28;20162;-78
2021/03/31 09:02:10;;;;;;;8.93;2.67;;;20.90;49.20;;;;;;4975679;28;20182;-77
2021/03/31 09:04:36;;;;;;;7.13;3.30;;;20.80;50.80;;;;;;4974926;28;20182;-78
2021/03/31 09:07:05;;;;;;;8.97;3.00;;;21.10;51.20;;;;;;4979161;28;20595;-77
2021/03/31 09:09:36;;;;;;;4.63;2.60;;;21.50;50.40;;;;;;4974873;28;20273;-78
2021/03/31 09:12:04;;;;;;;7.40;2.93;;;21.70;49.70;;;;;;4974648;28;20201;-76
2021/03/31 09:14:30;;;;;;;13.63;2.47;;;21.70;49.60;;;;;;4974550;28;20223;-77
2021/03/31 09:17:00;;;;;;;5.47;2.50;;;21.80;49.30;;;;;;4973344;28;20200;-77
2021/03/31 09:19:31;;;;;;;8.03;2.93;;;21.90;50.50;;;;;;4974616;28;20226;-76
2021/03/31 09:22:04;;;;;;;11.47;3.00;;;21.50;49.00;;;;;;4974659;28;20176;-76
2021/03/31 09:24:30;;;;;;;4.00;3.00;;;21.20;51.90;;;;;;4974603;28;20187;-77
2021/03/31 09:27:05;;;;;;;9.73;3.03;;;21.40;50.70;;;;;;4973100;28;20346;-77
2021/03/31 09:29:31;;;;;;;7.23;3.80;;;21.40;49.30;;;;;;4974475;28;20176;-77
2021/03/31 09:32:00;;;;;;;8.50;4.80;;;21.10;48.50;;;;;;4974990;28;20185;-77
2021/03/31 09:34:26;;;;;;;12.87;4.70;;;21.00;47.80;;;;;;4974148;28;20207;-77
2021/03/31 09:37:02;;;;;;;7.70;4.90;;;21.00;48.80;;;;;;4974364;28;20189;-76
2021/03/31 09:39:43;;;;;;;8.83;5.03;;;21.10;47.80;;;;;;4974858;28;20161;-77
2021/03/31 09:42:16;;;;;;;8.50;5.57;;;21.50;48.00;;;;;;4974702;28;20158;-77
2021/03/31 09:44:42;;;;;;;7.53;5.10;;;21.50;47.10;;;;;;4976146;28;20157;-77
2021/03/31 09:47:09;;;;;;;7.40;4.53;;;21.60;47.30;;;;;;4978063;28;20201;-76
2021/03/31 09:49:35;;;;;;;10.60;6.10;;;21.50;47.50;;;;;;4978294;28;20177;-76
2021/03/31 09:52:03;;;;;;;12.63;5.10;;;21.40;48.70;;;;;;4977721;28;20226;-76
2021/03/31 09:54:29;;;;;;;8.67;5.03;;;21.80;48.00;;;;;;4976254;28;20570;-77
2021/03/31 09:56:56;;;;;;;9.03;5.93;;;22.00;48.00;;;;;;4977472;28;20218;-76
2021/03/31 09:59:22;;;;;;;9.50;5.83;;;21.80;47.60;;;;;;4976195;28;20227;-76
2021/03/31 10:01:48;;;;;;;10.17;6.77;;;22.20;47.30;;;;;;4977780;28;20531;-77
2021/03/31 10:04:14;;;;;;;10.53;5.93;;;22.40;47.10;;;;;;4977225;28;20176;-77
2021/03/31 10:06:41;;;;;;;11.67;6.33;;;22.20;47.00;;;;;;4977491;28;20250;-77
2021/03/31 10:09:19;;;;;;;10.87;7.03;;;22.40;46.20;;;;;;4976142;28;20176;-77
2021/03/31 10:11:46;;;;;;;13.10;6.77;;;22.80;46.50;;;;;;4977419;28;20176;-77
2021/03/31 10:14:20;;;;;;;9.50;6.03;;;22.80;46.50;;;;;;4976575;28;20299;-77
2021/03/31 10:16:47;;;;;;;7.87;6.47;;;23.00;45.30;;;;;;4977533;28;20196;-77
2021/03/31 10:19:16;;;;;;;10.30;6.57;;;22.90;46.70;;;;;;4977231;28;20170;-77
2021/03/31 10:21:42;;;;;;;11.27;6.53;;;23.00;45.80;;;;;;4977146;28;20232;-76
2021/03/31 10:24:10;;;;;;;10.57;6.37;;;22.90;45.20;;;;;;4975746;28;20280;-77
2021/03/31 10:26:38;;;;;;;12.40;6.67;;;23.30;47.00;;;;;;4977168;28;20538;-77
2021/03/31 10:29:24;;;;;;;8.70;6.50;;;23.10;44.50;;;;;;4977351;28;20174;-77
2021/03/31 10:31:51;;;;;;;12.87;7.07;;;22.80;44.90;;;;;;4975847;28;20671;-76
2021/03/31 10:34:18;;;;;;;11.97;7.00;;;22.80;45.70;;;;;;4975486;28;20287;-76
2021/03/31 10:37:19;;;;;;;12.63;6.90;;;22.90;44.80;;;;;;4976724;28;20282;-76
2021/03/31 10:50:40;;;;;;;10.33;6.33;;;23.40;44.00;;;;;;4980693;28;20235;-77
2021/03/31 10:53:07;;;;;;;13.27;7.00;;;23.70;44.60;;;;;;4984645;28;20177;-77
2021/03/31 10:55:33;;;;;;;12.33;6.90;;;24.00;45.00;;;;;;4984236;28;20203;-76
2021/03/31 10:57:59;;;;;;;13.33;6.77;;;24.30;45.50;;;;;;4994581;28;20195;-77
2021/03/31 11:00:25;;;;;;;8.77;5.93;;;24.50;44.80;;;;;;4994763;28;20318;-77
2021/03/31 11:02:51;;;;;;;13.77;7.00;;;24.60;43.50;;;;;;4995278;28;20318;-77
2021/03/31 11:05:20;;;;;;;9.63;6.10;;;24.80;44.00;;;;;;4994151;28;20262;-77
2021/03/31 11:07:46;;;;;;;14.50;6.00;;;24.40;43.30;;;;;;4996053;28;20254;-77
2021/03/31 11:10:12;;;;;;;11.83;6.60;;;24.20;42.90;;;;;;4998517;28;20183;-78
2021/03/31 11:12:39;;;;;;;11.40;6.50;;;24.00;42.90;;;;;;5000938;28;20165;-78
2021/03/31 11:15:07;;;;;;;11.87;6.60;;;24.10;45.20;;;;;;4995531;28;20560;-76
2021/03/31 11:25:38;;;;;;;8.77;4.93;;;25.20;40.60;;;;;;4995554;28;20586;-76
2021/03/31 11:28:04;;;;;;;10.53;5.73;;;25.40;42.90;;;;;;4995895;28;20579;-76
2021/03/31 11:30:29;;;;;;;12.27;5.93;;;25.90;41.70;;;;;;4995841;28;20192;-76
2021/03/31 11:32:55;;;;;;;14.33;5.60;;;25.90;41.70;;;;;;4995584;28;20179;-77
2021/03/31 11:35:21;;;;;;;11.37;5.13;;;25.90;40.50;;;;;;4984130;28;20263;-75
2021/03/31 11:37:47;;;;;;;10.67;5.33;;;25.90;40.50;;;;;;5014124;28;20169;-75
2021/03/31 11:40:12;;;;;;;8.57;4.87;;;25.80;40.50;;;;;;5013090;28;20230;-75
2021/03/31 11:42:39;;;;;;;9.50;4.90;;;25.80;39.90;;;;;;5014393;28;20252;-75
2021/03/31 11:45:06;;;;;;;9.87;4.97;;;25.90;39.70;;;;;;5013985;28;20259;-75
2021/03/31 11:47:31;;;;;;;9.97;5.73;;;25.90;39.80;;;;;;5014669;28;20198;-75
2021/03/31 11:49:57;;;;;;;11.07;5.40;;;25.90;39.60;;;;;;5014060;28;20272;-75
2021/03/31 11:52:23;;;;;;;9.57;5.33;;;25.90;39.90;;;;;;5012988;28;20207;-76
2021/03/31 11:54:49;;;;;;;19.43;5.83;;;26.00;41.00;;;;;;5013845;28;20620;-76
2021/03/31 11:57:14;;;;;;;5.63;4.30;;;26.40;40.10;;;;;;5013792;28;20545;-75
2021/03/31 11:59:40;;;;;;;9.60;5.30;;;26.60;37.00;;;;;;5013988;28;20184;-75
2021/03/31 12:02:06;;;;;;;9.63;5.10;;;26.90;39.10;;;;;;5013929;28;20170;-75
2021/03/31 12:04:31;;;;;;;12.07;5.13;;;27.10;40.50;;;;;;5013658;28;20262;-75
2021/03/31 12:06:58;;;;;;;7.57;4.90;;;27.60;37.90;;;;;;5013790;28;20236;-75
2021/03/31 12:09:24;;;;;;;7.87;5.43;;;27.60;38.40;;;;;;5013215;28;20550;-76
2021/03/31 12:11:49;;;;;;;9.60;5.93;;;27.70;37.80;;;;;;5013795;28;20185;-75
2021/03/31 12:14:15;;;;;;;8.17;5.50;;;27.70;38.70;;;;;;5013866;28;20209;-75
2021/03/31 12:16:41;;;;;;;9.03;5.43;;;26.90;38.20;;;;;;4995960;28;20285;-75
2021/03/31 12:19:06;;;;;;;9.73;5.17;;;27.30;38.80;;;;;;4994486;28;20184;-75
2021/03/31 12:21:32;;;;;;;11.03;4.70;;;27.30;37.90;;;;;;4994410;28;20644;-76
2021/03/31 12:23:58;;;;;;;6.67;4.20;;;27.70;37.10;;;;;;4994715;28;20677;-77
2021/03/31 12:26:24;;;;;;;8.20;4.70;;;28.10;37.90;;;;;;5015578;28;20202;-77
2021/03/31 12:28:56;;;;;;;7.97;4.63;;;28.30;34.80;;;;;;4997823;28;20261;-79
2021/03/31 12:31:22;;;;;;;7.77;4.23;;;28.00;34.00;;;;;;4997094;28;20213;-77
2021/03/31 12:33:47;;;;;;;8.33;4.30;;;28.30;35.20;;;;;;4997473;28;20194;-79
2021/03/31 12:36:13;;;;;;;9.90;4.40;;;28.50;32.80;;;;;;4997159;28;20277;-77
2021/03/31 12:38:39;;;;;;;7.33;4.40;;;29.10;35.70;;;;;;4998346;28;20182;-78
2021/03/31 12:41:05;;;;;;;7.17;4.70;;;29.20;34.70;;;;;;4994984;28;20213;-77
2021/03/31 12:43:31;;;;;;;10.43;4.30;;;28.90;35.00;;;;;;4999119;28;20194;-78
2021/03/31 12:45:58;;;;;;;14.30;4.50;;;29.40;37.30;;;;;;5001937;28;20206;-78
2021/03/31 12:48:24;;;;;;;13.03;5.13;;;28.90;34.50;;;;;;5002073;28;20265;-78
2021/03/31 12:50:54;;;;;;;7.77;4.60;;;28.30;35.40;;;;;;5000823;28;20186;-78
2021/03/31 12:53:35;;;;;;;12.53;5.80;;;28.70;34.40;;;;;;5000313;28;20247;-79
2021/03/31 12:56:01;;;;;;;9.13;5.20;;;29.00;35.70;;;;;;4999203;28;20582;-79
2021/03/31 12:58:27;;;;;;;5.73;4.40;;;29.30;34.10;;;;;;4999434;28;20179;-78
2021/03/31 13:00:54;;;;;;;7.50;4.40;;;28.80;34.10;;;;;;4998706;28;20206;-78
2021/03/31 13:03:20;;;;;;;7.00;4.13;;;28.80;33.60;;;;;;5015349;28;20369;-78
2021/03/31 13:05:46;;;;;;;6.90;4.13;;;29.40;34.60;;;;;;4998258;28;20210;-78
2021/03/31 13:08:13;;;;;;;10.83;4.77;;;29.70;32.70;;;;;;4999088;28;20176;-77
2021/03/31 13:10:44;;;;;;;5.67;3.57;;;29.70;33.60;;;;;;4996649;28;20172;-77
2021/03/31 13:13:20;;;;;;;4.40;3.30;;;30.00;29.70;;;;;;4998001;28;20339;-81
2021/03/31 13:16:04;;;;;;;9.70;4.10;;;29.90;30.20;;;;;;4994962;28;20223;-76
2021/03/31 13:31:22;;;;;;;8.50;3.83;;;30.20;30.80;;;;;;4997634;28;20312;-76
2021/03/31 13:33:52;;;;;;;9.83;3.93;;;30.40;30.00;;;;;;4996180;28;20202;-76
2021/03/31 13:36:26;;;;;;;7.57;3.40;;;30.20;29.60;;;;;;4997365;28;20212;-76
2021/03/31 13:41:21;;;;;;;7.23;3.50;;;29.30;28.30;;;;;;4997935;28;20690;-76